Time;durP1;ratioP1;P1;durP2;ratioP2;P2;SDS_P1;SDS_P2;PMS_P1;PMS_P2;Temp;Humidity;BMP_temperature;BMP_pressure;BME280_temperature;BME280_humidity;BME280_pressure;Samples;Min_cycle;Max_cycle;Signal;HPM_P1;HPM_P2
2021/08/05 00:02:16;;;;;;;8.30;7.50;;;;;;;;;;5075901;28;20409;-70
2021/08/05 00:04:42;;;;;;;8.33;7.63;;;;;;;;;;5094183;28;20456;-73
2021/08/05 00:07:09;;;;;;;10.30;7.20;;;;;;;;;;5095741;28;20464;-74
2021/08/05 00:09:35;;;;;;;8.53;7.60;;;;;;;;;;5095695;28;20495;-72
2021/08/05 00:12:01;;;;;;;8.80;7.83;;;;;;;;;;5096346;28;20505;-72
2021/08/05 00:14:27;;;;;;;7.90;7.10;;;;;;;;;;5097678;28;20933;-74
2021/08/05 00:16:53;;;;;;;10.10;8.40;;;;;;;;;;5097240;28;20814;-73
2021/08/05 00:19:19;;;;;;;8.10;7.30;;;;;;;;;;5093255;28;20409;-73
2021/08/05 00:21:45;;;;;;;8.63;7.73;;;;;;;;;;5077714;28;20401;-73
2021/08/05 00:24:11;;;;;;;8.27;7.47;;;;;;;;;;5077164;28;20453;-73
2021/08/05 00:26:37;;;;;;;7.97;7.27;;;;;;;;;;5074845;28;20412;-70
2021/08/05 00:29:03;;;;;;;7.50;6.80;;;;;;;;;;5075817;28;20428;-73
2021/08/05 00:31:29;;;;;;;8.17;7.33;;;;;;;;;;5075428;28;20475;-73
2021/08/05 00:33:55;;;;;;;8.20;7.40;;;;;;;;;;5080228;28;20551;-72
2021/08/05 00:36:21;;;;;;;8.37;7.50;;;;;;;;;;5095630;28;20786;-74
2021/08/05 00:38:47;;;;;;;9.07;7.00;;;;;;;;;;5095109;28;20419;-71
2021/08/05 00:41:13;;;;;;;8.40;6.63;;;;;;;;;;5095397;28;20408;-73
2021/08/05 00:43:39;;;;;;;7.73;6.70;;;;;;;;;;5095378;28;20802;-73
2021/08/05 00:46:05;;;;;;;6.63;6.13;;;;;;;;;;5095482;28;20420;-73
2021/08/05 00:48:31;;;;;;;6.27;5.67;;;;;;;;;;5095320;28;20416;-73
2021/08/05 00:50:58;;;;;;;6.53;6.03;;;;;;;;;;5095485;28;20418;-73
2021/08/05 00:53:26;;;;;;;7.40;6.70;;;;;;;;;;5090168;28;20483;-73
2021/08/05 00:55:53;;;;;;;6.60;6.00;;;;;;;;;;5074781;28;20418;-73
2021/08/05 00:58:19;;;;;;;7.17;5.80;;;;;;;;;;5074593;28;20413;-71
2021/08/05 01:00:47;;;;;;;6.67;5.97;;;;;;;;;;5075166;28;20458;-69
2021/08/05 01:03:24;;;;;;;5.90;5.40;;;;;;;;;;5074614;28;20440;-72
2021/08/05 01:05:58;;;;;;;9.07;6.63;;;;;;;;;;5074887;28;20767;-70
2021/08/05 01:08:25;;;;;;;5.30;4.90;;;;;;;;;;5074447;28;20466;-73
2021/08/05 01:10:57;;;;;;;5.90;5.40;;;;;;;;;;5074507;28;20496;-72
2021/08/05 01:13:25;;;;;;;5.70;5.20;;;;;;;;;;5074062;28;20496;-73
2021/08/05 01:15:53;;;;;;;5.60;5.00;;;;;;;;;;5074435;28;20424;-71
2021/08/05 01:18:26;;;;;;;5.60;5.10;;;;;;;;;;5074089;28;20420;-72
2021/08/05 01:20:52;;;;;;;5.87;5.30;;;;;;;;;;5075137;28;20768;-73
2021/08/05 01:23:30;;;;;;;8.33;4.80;;;;;;;;;;5074252;28;20458;-71
2021/08/05 01:25:56;;;;;;;4.70;4.30;;;;;;;;;;5074543;28;20411;-72
2021/08/05 01:28:23;;;;;;;4.90;4.40;;;;;;;;;;5072374;28;20425;-72
2021/08/05 01:30:50;;;;;;;4.27;3.87;;;;;;;;;;5074341;28;20494;-70
2021/08/05 01:33:20;;;;;;;6.20;3.87;;;;;;;;;;5074082;28;20502;-73
2021/08/05 01:35:49;;;;;;;5.30;4.13;;;;;;;;;;5074553;28;20796;-73
2021/08/05 01:38:16;;;;;;;4.40;4.00;;;;;;;;;;5073667;28;20410;-72
2021/08/05 01:40:42;;;;;;;4.37;3.97;;;;;;;;;;5074159;28;20768;-72
2021/08/05 01:43:09;;;;;;;4.87;4.37;;;;;;;;;;5075775;28;20910;-73
2021/08/05 01:45:35;;;;;;;5.90;4.10;;;;;;;;;;5094440;28;20477;-72
2021/08/05 01:48:01;;;;;;;4.17;3.77;;;;;;;;;;5093845;28;20506;-69
2021/08/05 01:50:28;;;;;;;4.20;3.80;;;;;;;;;;5093956;28;20494;-71
2021/08/05 01:52:54;;;;;;;4.80;3.60;;;;;;;;;;5092166;28;20475;-71
2021/08/05 01:55:20;;;;;;;4.10;3.53;;;;;;;;;;5074049;28;20409;-72
2021/08/05 01:57:46;;;;;;;4.43;4.00;;;;;;;;;;5073392;28;20405;-74
2021/08/05 02:00:13;;;;;;;4.50;4.10;;;;;;;;;;5073635;28;20812;-71
2021/08/05 02:02:39;;;;;;;3.40;3.10;;;;;;;;;;5073556;28;20426;-71
2021/08/05 02:05:07;;;;;;;4.57;4.17;;;;;;;;;;5073594;28;20787;-72
2021/08/05 02:07:52;;;;;;;3.80;3.50;;;;;;;;;;5073060;28;20416;-73
2021/08/05 02:10:21;;;;;;;4.20;3.80;;;;;;;;;;5073429;28;20416;-73
2021/08/05 02:12:49;;;;;;;4.10;3.40;;;;;;;;;;5073627;28;20568;-71
2021/08/05 02:15:16;;;;;;;5.20;3.33;;;;;;;;;;5086191;28;20422;-75
2021/08/05 02:17:43;;;;;;;4.50;3.37;;;;;;;;;;5093385;28;20492;-70
2021/08/05 02:20:10;;;;;;;4.27;3.63;;;;;;;;;;5094046;28;20406;-73
2021/08/05 02:22:38;;;;;;;4.87;3.73;;;;;;;;;;5093472;28;20409;-71
2021/08/05 02:25:05;;;;;;;3.70;3.30;;;;;;;;;;5093729;28;20415;-72
2021/08/05 02:27:31;;;;;;;4.70;4.13;;;;;;;;;;5093072;28;20828;-74
2021/08/05 02:29:58;;;;;;;3.50;3.20;;;;;;;;;;5077713;28;20411;-72
2021/08/05 02:32:24;;;;;;;4.03;3.63;;;;;;;;;;5073057;28;20424;-73
2021/08/05 02:34:51;;;;;;;4.73;3.40;;;;;;;;;;5073345;28;20433;-71
2021/08/05 02:37:17;;;;;;;4.17;3.30;;;;;;;;;;5073012;28;20417;-73
2021/08/05 02:39:43;;;;;;;3.90;3.33;;;;;;;;;;5073246;28;20748;-73
2021/08/05 02:42:09;;;;;;;4.40;3.50;;;;;;;;;;5073208;28;20409;-71
2021/08/05 02:44:36;;;;;;;3.90;3.60;;;;;;;;;;5073050;28;20483;-71
2021/08/05 02:47:03;;;;;;;6.13;3.30;;;;;;;;;;5073162;28;20431;-72
2021/08/05 02:49:31;;;;;;;4.07;3.67;;;;;;;;;;5073002;28;20420;-73
2021/08/05 02:51:58;;;;;;;3.67;3.37;;;;;;;;;;5073123;28;20829;-73
2021/08/05 02:54:24;;;;;;;6.73;3.60;;;;;;;;;;5072922;28;20496;-68
2021/08/05 02:56:50;;;;;;;3.60;3.00;;;;;;;;;;5073081;28;20418;-72
2021/08/05 02:59:16;;;;;;;3.93;3.13;;;;;;;;;;5073100;28;20421;-73
2021/08/05 03:01:42;;;;;;;4.10;3.70;;;;;;;;;;5073220;28;20410;-70
2021/08/05 03:04:10;;;;;;;4.70;3.50;;;;;;;;;;5072612;28;20853;-69
2021/08/05 03:06:36;;;;;;;4.03;3.53;;;;;;;;;;5072468;28;20940;-69
2021/08/05 03:09:03;;;;;;;3.57;3.27;;;;;;;;;;5072603;28;20414;-73
2021/08/05 03:11:29;;;;;;;3.10;2.80;;;;;;;;;;5072907;28;20778;-72
2021/08/05 03:13:55;;;;;;;4.03;3.20;;;;;;;;;;5072862;28;20807;-73
2021/08/05 03:16:21;;;;;;;3.43;3.13;;;;;;;;;;5072709;28;20501;-70
2021/08/05 03:18:47;;;;;;;3.77;2.73;;;;;;;;;;5072186;28;20409;-71
2021/08/05 03:21:13;;;;;;;4.60;3.83;;;;;;;;;;5072588;28;20413;-71
2021/08/05 03:23:39;;;;;;;3.77;3.33;;;;;;;;;;5072777;28;20447;-71
2021/08/05 03:26:07;;;;;;;3.57;3.27;;;;;;;;;;5072840;28;21004;-70
2021/08/05 03:28:33;;;;;;;3.27;2.77;;;;;;;;;;5071884;28;20896;-73
2021/08/05 03:30:59;;;;;;;3.87;3.30;;;;;;;;;;5072505;28;20440;-71
2021/08/05 03:33:25;;;;;;;4.23;2.73;;;;;;;;;;5072300;28;20471;-73
2021/08/05 03:35:52;;;;;;;3.63;2.80;;;;;;;;;;5074944;28;20412;-74
2021/08/05 03:38:18;;;;;;;3.60;3.10;;;;;;;;;;5075895;28;20413;-72
2021/08/05 03:40:44;;;;;;;4.00;3.20;;;;;;;;;;5076287;28;20421;-69
2021/08/05 03:43:10;;;;;;;4.50;3.30;;;;;;;;;;5075956;28;20791;-72
2021/08/05 03:45:36;;;;;;;3.30;3.00;;;;;;;;;;5076618;28;20417;-73
2021/08/05 03:48:02;;;;;;;3.67;3.37;;;;;;;;;;5075764;28;20469;-74
2021/08/05 03:50:28;;;;;;;3.47;3.00;;;;;;;;;;5076571;28;20417;-71
2021/08/05 03:52:54;;;;;;;4.50;3.33;;;;;;;;;;5077245;28;20846;-73
2021/08/05 03:55:20;;;;;;;3.60;2.80;;;;;;;;;;5093616;28;20407;-69
2021/08/05 03:57:46;;;;;;;4.50;3.40;;;;;;;;;;5072690;28;20414;-73
2021/08/05 04:00:14;;;;;;;2.97;2.60;;;;;;;;;;5076162;28;20409;-72
2021/08/05 04:02:40;;;;;;;2.90;2.60;;;;;;;;;;5075808;28;20849;-69
2021/08/05 04:05:06;;;;;;;3.30;2.83;;;;;;;;;;5075741;28;20436;-71
2021/08/05 04:07:32;;;;;;;4.53;3.13;;;;;;;;;;5075588;28;20428;-71
2021/08/05 04:09:59;;;;;;;3.00;2.70;;;;;;;;;;5075735;28;20425;-73
2021/08/05 04:12:25;;;;;;;4.00;2.80;;;;;;;;;;5075605;28;20419;-73
2021/08/05 04:14:51;;;;;;;3.20;2.50;;;;;;;;;;5075632;28;20421;-72
2021/08/05 04:17:17;;;;;;;3.60;3.00;;;;;;;;;;5075311;28;20495;-72
2021/08/05 04:19:43;;;;;;;3.77;3.47;;;;;;;;;;5075753;28;20461;-73
2021/08/05 04:22:09;;;;;;;3.33;3.03;;;;;;;;;;5075747;28;20437;-73
2021/08/05 04:24:35;;;;;;;3.13;2.83;;;;;;;;;;5075477;28;20461;-74
2021/08/05 04:27:01;;;;;;;3.50;3.20;;;;;;;;;;5075467;28;20944;-73
2021/08/05 04:29:27;;;;;;;4.37;3.13;;;;;;;;;;5075168;28;20415;-73
2021/08/05 04:31:53;;;;;;;3.20;2.90;;;;;;;;;;5075261;28;20448;-70
2021/08/05 04:34:19;;;;;;;3.57;3.03;;;;;;;;;;5075430;28;20924;-71
2021/08/05 04:36:45;;;;;;;3.43;3.13;;;;;;;;;;5075026;28;20740;-72
2021/08/05 04:39:11;;;;;;;3.10;2.80;;;;;;;;;;5075191;28;20787;-72
2021/08/05 04:41:37;;;;;;;3.23;2.93;;;;;;;;;;5075188;28;20426;-70
2021/08/05 04:44:03;;;;;;;3.10;2.80;;;;;;;;;;5083681;28;20493;-72
2021/08/05 04:46:29;;;;;;;3.17;2.87;;;;;;;;;;5094077;28;20453;-71
2021/08/05 04:48:55;;;;;;;3.33;3.03;;;;;;;;;;5094966;28;20941;-74
2021/08/05 04:51:21;;;;;;;5.00;3.00;;;;;;;;;;5095421;28;20427;-75
2021/08/05 04:53:47;;;;;;;3.30;2.60;;;;;;;;;;5095059;28;20468;-74
2021/08/05 04:56:13;;;;;;;3.03;2.73;;;;;;;;;;5082172;28;20472;-73
2021/08/05 04:58:39;;;;;;;3.47;2.47;;;;;;;;;;5074691;28;20417;-73
2021/08/05 05:01:05;;;;;;;3.70;3.30;;;;;;;;;;5074592;28;20409;-73
2021/08/05 05:03:31;;;;;;;2.87;2.60;;;;;;;;;;5074858;28;20442;-73
2021/08/05 05:05:57;;;;;;;3.50;3.20;;;;;;;;;;5074912;28;20447;-75
2021/08/05 05:08:24;;;;;;;4.80;3.00;;;;;;;;;;5074383;28;20974;-74
2021/08/05 05:10:51;;;;;;;3.60;3.30;;;;;;;;;;5074456;28;20453;-71
2021/08/05 05:13:18;;;;;;;3.50;3.20;;;;;;;;;;5074511;28;20465;-69
2021/08/05 05:15:44;;;;;;;5.57;3.00;;;;;;;;;;5074091;28;20460;-71
2021/08/05 05:18:10;;;;;;;3.53;3.23;;;;;;;;;;5074154;28;20456;-72
2021/08/05 05:20:37;;;;;;;4.20;3.27;;;;;;;;;;5074474;28;20414;-71
2021/08/05 05:23:04;;;;;;;4.93;3.30;;;;;;;;;;5074753;28;20469;-71
2021/08/05 05:25:30;;;;;;;3.20;2.87;;;;;;;;;;5091157;28;20424;-73
2021/08/05 05:27:56;;;;;;;3.40;2.83;;;;;;;;;;5094267;28;20413;-73
2021/08/05 05:30:22;;;;;;;3.77;2.83;;;;;;;;;;5074884;28;20775;-72
2021/08/05 05:32:48;;;;;;;3.90;3.03;;;;;;;;;;5074230;28;20456;-70
2021/08/05 05:35:16;;;;;;;4.37;3.47;;;;;;;;;;5091203;28;20763;-69
2021/08/05 05:37:43;;;;;;;4.93;4.30;;;;;;;;;;5094121;28;20772;-69
2021/08/05 05:40:10;;;;;;;3.47;3.17;;;;;;;;;;5094155;28;20526;-72
2021/08/05 05:42:36;;;;;;;3.70;3.40;;;;;;;;;;5094408;28;20424;-73
2021/08/05 05:45:02;;;;;;;5.23;3.40;;;;;;;;;;5093997;28;20417;-69
2021/08/05 05:47:28;;;;;;;4.00;3.30;;;;;;;;;;5094184;28;20428;-71
2021/08/05 05:49:54;;;;;;;3.27;2.97;;;;;;;;;;5077090;28;20411;-73
2021/08/05 05:52:21;;;;;;;3.80;3.50;;;;;;;;;;5073802;28;20415;-71
2021/08/05 05:54:47;;;;;;;3.80;3.27;;;;;;;;;;5090467;28;20553;-71
2021/08/05 05:57:13;;;;;;;3.40;3.10;;;;;;;;;;5071966;28;20510;-74
2021/08/05 05:59:40;;;;;;;3.50;3.20;;;;;;;;;;5073598;28;20927;-72
2021/08/05 06:02:06;;;;;;;3.70;3.40;;;;;;;;;;5073622;28;20417;-71
2021/08/05 06:04:32;;;;;;;7.23;3.60;;;;;;;;;;5073102;28;20462;-72
2021/08/05 06:06:58;;;;;;;5.13;3.27;;;;;;;;;;5073137;28;20410;-70
2021/08/05 06:09:24;;;;;;;4.87;3.83;;;;;;;;;;5073455;28;20407;-69
2021/08/05 06:11:50;;;;;;;3.83;3.20;;;;;;;;;;5073352;28;20417;-71
2021/08/05 06:14:17;;;;;;;4.10;3.70;;;;;;;;;;5076612;28;20467;-73
2021/08/05 06:16:43;;;;;;;3.53;3.23;;;;;;;;;;5093247;28;20774;-70
2021/08/05 06:19:11;;;;;;;3.33;3.03;;;;;;;;;;5093765;28;20405;-73
2021/08/05 06:21:37;;;;;;;3.70;2.73;;;;;;;;;;5093684;28;20471;-74
2021/08/05 06:24:03;;;;;;;3.60;3.10;;;;;;;;;;5089465;28;20438;-71
2021/08/05 06:26:29;;;;;;;6.13;3.90;;;;;;;;;;5073249;28;20923;-73
2021/08/05 06:28:55;;;;;;;3.90;3.53;;;;;;;;;;5072792;28;20438;-73
2021/08/05 06:31:21;;;;;;;5.07;4.67;;;;;;;;;;5073519;28;20524;-71
2021/08/05 06:33:50;;;;;;;4.10;3.60;;;;;;;;;;5073247;28;20472;-72
2021/08/05 06:36:17;;;;;;;4.03;3.60;;;;;;;;;;5073247;28;20421;-72
2021/08/05 06:38:43;;;;;;;4.30;3.67;;;;;;;;;;5072767;28;20736;-72
2021/08/05 06:41:09;;;;;;;4.43;3.30;;;;;;;;;;5073107;28;20417;-74
2021/08/05 06:43:35;;;;;;;5.13;3.40;;;;;;;;;;5073048;28;20429;-73
2021/08/05 06:46:01;;;;;;;4.27;3.30;;;;;;;;;;5073232;28;20737;-74
2021/08/05 06:48:27;;;;;;;3.47;3.17;;;;;;;;;;5072794;28;20421;-72
2021/08/05 06:50:53;;;;;;;3.37;3.07;;;;;;;;;;5073126;28;20418;-74
2021/08/05 06:53:20;;;;;;;3.50;3.00;;;;;;;;;;5072868;28;20465;-71
2021/08/05 06:55:46;;;;;;;3.50;3.20;;;;;;;;;;5075139;28;20404;-71
2021/08/05 06:58:12;;;;;;;3.63;3.30;;;;;;;;;;5072823;28;20885;-72
2021/08/05 07:00:38;;;;;;;3.80;3.40;;;;;;;;;;5072792;28;20434;-72
2021/08/05 07:03:04;;;;;;;6.37;3.87;;;;;;;;;;5072887;28;20512;-72
2021/08/05 07:05:30;;;;;;;4.70;3.33;;;;;;;;;;5072774;28;20442;-72
2021/08/05 07:07:56;;;;;;;3.50;3.20;;;;;;;;;;5072729;28;20765;-71
2021/08/05 07:10:23;;;;;;;4.50;3.20;;;;;;;;;;5074687;28;20410;-71
2021/08/05 07:12:49;;;;;;;4.00;3.60;;;;;;;;;;5076610;28;20454;-70
2021/08/05 07:15:15;;;;;;;3.50;3.10;;;;;;;;;;5076836;28;20403;-73
2021/08/05 07:17:44;;;;;;;3.77;3.20;;;;;;;;;;5076408;28;20411;-72
2021/08/05 07:20:10;;;;;;;3.37;3.07;;;;;;;;;;5077211;28;20415;-70
2021/08/05 07:22:38;;;;;;;3.97;3.47;;;;;;;;;;5076414;28;20509;-72
2021/08/05 07:25:04;;;;;;;6.00;3.63;;;;;;;;;;5076922;28;20414;-73
2021/08/05 07:27:30;;;;;;;4.83;4.33;;;;;;;;;;5076453;28;20416;-71
2021/08/05 07:29:56;;;;;;;4.93;4.53;;;;;;;;;;5076540;28;20464;-71
2021/08/05 07:32:23;;;;;;;4.37;3.80;;;;;;;;;;5076645;28;20417;-72
2021/08/05 07:34:49;;;;;;;4.47;4.07;;;;;;;;;;5076470;28;20473;-72
2021/08/05 07:37:16;;;;;;;4.73;4.20;;;;;;;;;;5076027;28;20444;-73
2021/08/05 07:39:42;;;;;;;5.07;4.00;;;;;;;;;;5076401;28;20406;-72
2021/08/05 07:42:08;;;;;;;3.83;3.43;;;;;;;;;;5076551;28;20992;-71
2021/08/05 07:44:34;;;;;;;3.67;3.37;;;;;;;;;;5076521;28;20565;-71
2021/08/05 07:47:00;;;;;;;5.17;3.80;;;;;;;;;;5081700;28;20773;-71
2021/08/05 07:49:26;;;;;;;3.80;3.50;;;;;;;;;;5096504;28;20793;-72
2021/08/05 07:51:53;;;;;;;3.80;3.50;;;;;;;;;;5076291;28;20921;-74
2021/08/05 07:54:19;;;;;;;6.50;4.10;;;;;;;;;;5090058;28;20475;-74
2021/08/05 07:56:45;;;;;;;3.90;3.60;;;;;;;;;;5079344;28;20794;-70
2021/08/05 07:59:11;;;;;;;8.00;3.30;;;;;;;;;;5089769;28;20492;-73
2021/08/05 08:01:37;;;;;;;4.10;3.77;;;;;;;;;;5056387;28;20401;-71
2021/08/05 08:04:03;;;;;;;4.93;4.10;;;;;;;;;;5055915;28;20931;-72
2021/08/05 08:06:29;;;;;;;4.73;4.33;;;;;;;;;;5075986;28;20399;-71
2021/08/05 08:08:55;;;;;;;5.67;3.50;;;;;;;;;;5075601;28;20417;-70
2021/08/05 08:11:24;;;;;;;5.93;4.40;;;;;;;;;;5075950;28;20405;-72
2021/08/05 08:13:51;;;;;;;5.97;4.13;;;;;;;;;;5075859;28;20466;-74
2021/08/05 08:16:18;;;;;;;5.50;4.20;;;;;;;;;;5075871;28;20509;-74
2021/08/05 08:18:44;;;;;;;4.60;4.20;;;;;;;;;;5075378;28;20399;-73
2021/08/05 08:21:11;;;;;;;5.30;4.20;;;;;;;;;;5075288;28;20406;-71
2021/08/05 08:23:37;;;;;;;6.20;4.20;;;;;;;;;;5076602;28;20484;-73
2021/08/05 08:26:03;;;;;;;4.53;4.13;;;;;;;;;;5095922;28;20415;-71
2021/08/05 08:28:30;;;;;;;5.10;4.60;;;;;;;;;;5095582;28;20743;-74
2021/08/05 08:30:56;;;;;;;5.97;3.90;;;;;;;;;;5096102;28;20417;-73
2021/08/05 08:33:22;;;;;;;4.03;3.53;;;;;;;;;;5094522;28;20550;-71
2021/08/05 08:35:47;;;;;;;5.00;4.40;;;;;;;;;;5083485;28;20444;-72
2021/08/05 08:38:14;;;;;;;4.63;4.10;;;;;;;;;;5094301;28;20738;-74
2021/08/05 08:40:40;;;;;;;5.10;4.37;;;;;;;;;;5075662;28;20405;-74
2021/08/05 08:43:06;;;;;;;5.10;4.70;;;;;;;;;;5076215;28;20505;-72
2021/08/05 08:45:32;;;;;;;4.33;3.90;;;;;;;;;;5095689;28;20402;-70
2021/08/05 08:47:59;;;;;;;5.03;4.37;;;;;;;;;;5084037;28;20421;-70
2021/08/05 08:50:27;;;;;;;4.33;3.93;;;;;;;;;;5086213;28;20409;-70
2021/08/05 08:52:54;;;;;;;4.97;4.57;;;;;;;;;;5085984;28;20458;-69
2021/08/05 08:55:22;;;;;;;4.57;4.17;;;;;;;;;;5102099;28;20793;-71
2021/08/05 08:57:48;;;;;;;4.70;4.30;;;;;;;;;;5081241;28;20446;-70
2021/08/05 09:00:15;;;;;;;6.70;4.83;;;;;;;;;;5092536;28;20789;-70
2021/08/05 09:02:46;;;;;;;4.90;4.50;;;;;;;;;;5103215;28;20410;-69
2021/08/05 09:05:12;;;;;;;4.97;4.50;;;;;;;;;;5105827;28;20429;-70
2021/08/05 09:07:38;;;;;;;6.50;4.33;;;;;;;;;;5087782;28;20415;-71
2021/08/05 09:10:04;;;;;;;5.20;4.67;;;;;;;;;;5085438;28;20796;-71
2021/08/05 09:12:31;;;;;;;5.13;4.30;;;;;;;;;;5085335;28;20410;-73
2021/08/05 09:14:57;;;;;;;5.07;4.40;;;;;;;;;;5085741;28;20477;-71
2021/08/05 09:17:30;;;;;;;4.60;4.20;;;;;;;;;;5083859;28;20419;-72
2021/08/05 09:19:57;;;;;;;4.73;4.33;;;;;;;;;;5084408;28;20434;-73
2021/08/05 09:22:30;;;;;;;4.70;4.30;;;;;;;;;;5081815;28;20453;-70
2021/08/05 09:24:56;;;;;;;4.30;3.73;;;;;;;;;;5083487;28;20476;-71
2021/08/05 09:27:35;;;;;;;4.90;4.20;;;;;;;;;;5082995;28;20422;-69
2021/08/05 09:30:01;;;;;;;5.30;4.73;;;;;;;;;;5082189;28;20414;-70
2021/08/05 09:32:27;;;;;;;4.50;4.00;;;;;;;;;;5081547;28;20425;-72
2021/08/05 09:35:03;;;;;;;6.47;3.57;;;;;;;;;;5096322;28;20465;-70
2021/08/05 09:37:35;;;;;;;4.77;4.37;;;;;;;;;;5101428;28;20437;-73
2021/08/05 09:40:08;;;;;;;5.60;4.20;;;;;;;;;;5096265;28;20440;-71
2021/08/05 09:42:34;;;;;;;4.57;4.00;;;;;;;;;;5094941;28;20416;-72
2021/08/05 09:45:02;;;;;;;4.27;3.87;;;;;;;;;;5078298;28;20418;-74
2021/08/05 09:47:28;;;;;;;7.17;4.50;;;;;;;;;;5074209;28;20406;-73
2021/08/05 09:49:57;;;;;;;4.37;4.07;;;;;;;;;;5074509;28;20409;-71
2021/08/05 09:52:27;;;;;;;4.10;3.80;;;;;;;;;;5072844;28;20418;-73
2021/08/05 09:54:53;;;;;;;4.33;3.87;;;;;;;;;;5074396;28;20505;-73
2021/08/05 09:57:29;;;;;;;4.00;3.70;;;;;;;;;;5073640;28;20423;-71
2021/08/05 09:59:55;;;;;;;4.33;3.93;;;;;;;;;;5073866;28;20406;-72
2021/08/05 10:02:21;;;;;;;4.40;4.10;;;;;;;;;;5074193;28;20422;-71
2021/08/05 10:04:48;;;;;;;5.60;3.50;;;;;;;;;;5073659;28;20454;-71
2021/08/05 10:07:15;;;;;;;4.80;3.40;;;;;;;;;;5073534;28;20783;-72
2021/08/05 10:09:43;;;;;;;3.80;3.50;;;;;;;;;;5073840;28;20407;-70
2021/08/05 10:12:14;;;;;;;3.53;3.23;;;;;;;;;;5073831;28;20770;-70
2021/08/05 10:14:40;;;;;;;3.80;3.50;;;;;;;;;;5073960;28;20469;-71
2021/08/05 10:17:07;;;;;;;3.53;3.23;;;;;;;;;;5073352;28;20422;-72
2021/08/05 10:19:37;;;;;;;3.90;3.53;;;;;;;;;;5073617;28;20410;-73
2021/08/05 10:22:04;;;;;;;4.20;3.83;;;;;;;;;;5073576;28;20494;-72
2021/08/05 10:24:30;;;;;;;5.90;3.53;;;;;;;;;;5081577;28;20469;-74
2021/08/05 10:26:56;;;;;;;4.13;3.83;;;;;;;;;;5093432;28;20417;-74
2021/08/05 10:29:22;;;;;;;3.87;3.50;;;;;;;;;;5082693;28;20425;-70
2021/08/05 10:31:49;;;;;;;3.47;3.20;;;;;;;;;;5073874;28;20765;-71
2021/08/05 10:34:16;;;;;;;3.53;3.23;;;;;;;;;;5081217;28;20467;-71
2021/08/05 10:36:42;;;;;;;3.70;3.40;;;;;;;;;;5092932;28;20418;-70
2021/08/05 10:39:09;;;;;;;4.13;3.83;;;;;;;;;;5093345;28;20417;-73
2021/08/05 10:41:35;;;;;;;3.40;3.10;;;;;;;;;;5093476;28;20490;-72
2021/08/05 10:44:01;;;;;;;3.90;2.90;;;;;;;;;;5093411;28;20445;-71
2021/08/05 10:46:33;;;;;;;5.90;3.80;;;;;;;;;;5093783;28;20416;-70
2021/08/05 10:49:01;;;;;;;3.33;3.00;;;;;;;;;;5093427;28;20453;-70
2021/08/05 10:51:27;;;;;;;4.10;3.73;;;;;;;;;;5093438;28;20413;-70
2021/08/05 10:53:55;;;;;;;3.50;3.20;;;;;;;;;;5093233;28;20475;-69
2021/08/05 10:56:22;;;;;;;3.73;3.37;;;;;;;;;;5079271;28;20418;-73
2021/08/05 10:59:09;;;;;;;3.80;3.50;;;;;;;;;;5072555;28;20419;-73
2021/08/05 11:01:48;;;;;;;3.87;3.57;;;;;;;;;;5073220;28;20445;-71
2021/08/05 11:04:33;;;;;;;3.40;3.10;;;;;;;;;;5072827;28;20446;-71
2021/08/05 11:07:17;;;;;;;4.00;3.60;;;;;;;;;;5072831;28;20414;-71
2021/08/05 11:09:43;;;;;;;4.00;3.60;;;;;;;;;;5072961;28;20906;-70
2021/08/05 11:12:36;;;;;;;3.60;3.30;;;;;;;;;;5073255;28;20438;-74
2021/08/05 11:15:02;;;;;;;3.40;3.10;;;;;;;;;;5071029;28;20458;-72
2021/08/05 11:17:28;;;;;;;5.10;4.70;;;;;;;;;;5072757;28;20398;-71
2021/08/05 11:20:12;;;;;;;3.50;3.20;;;;;;;;;;5072968;28;20515;-71
2021/08/05 11:22:40;;;;;;;3.93;3.20;;;;;;;;;;5072667;28;20395;-70
2021/08/05 11:25:06;;;;;;;3.90;3.60;;;;;;;;;;5072805;28;20441;-74
2021/08/05 11:27:32;;;;;;;3.40;3.10;;;;;;;;;;5072549;28;20483;-74
2021/08/05 11:29:58;;;;;;;3.53;3.23;;;;;;;;;;5072974;28;20406;-73
2021/08/05 11:32:24;;;;;;;4.00;3.40;;;;;;;;;;5078985;28;20420;-70
2021/08/05 11:34:54;;;;;;;3.10;2.90;;;;;;;;;;5092357;28;20497;-72
2021/08/05 11:37:20;;;;;;;3.93;3.50;;;;;;;;;;5093122;28;20410;-72
2021/08/05 11:40:06;;;;;;;4.00;3.53;;;;;;;;;;5092965;28;20433;-69
2021/08/05 11:42:34;;;;;;;4.00;3.50;;;;;;;;;;5093274;28;20703;-70
2021/08/05 11:45:02;;;;;;;3.80;3.50;;;;;;;;;;5092492;28;20421;-71
2021/08/05 11:47:28;;;;;;;3.80;3.50;;;;;;;;;;5092752;28;20409;-74
2021/08/05 11:49:59;;;;;;;6.87;3.50;;;;;;;;;;5092911;28;20882;-71
2021/08/05 11:52:31;;;;;;;3.40;3.10;;;;;;;;;;5093389;28;20492;-73
2021/08/05 11:55:10;;;;;;;4.40;4.10;;;;;;;;;;5092378;28;20460;-72
2021/08/05 11:57:56;;;;;;;3.37;3.17;;;;;;;;;;5071398;28;20414;-71
2021/08/05 12:00:24;;;;;;;3.60;3.30;;;;;;;;;;5076112;28;20414;-69
2021/08/05 12:02:51;;;;;;;4.30;3.30;;;;;;;;;;5076208;28;20410;-73
2021/08/05 12:05:19;;;;;;;3.60;3.23;;;;;;;;;;5075705;28;20987;-72
2021/08/05 12:07:49;;;;;;;3.10;2.80;;;;;;;;;;5075709;28;20767;-71
2021/08/05 12:10:28;;;;;;;3.10;2.80;;;;;;;;;;5075934;28;20472;-72
2021/08/05 12:13:00;;;;;;;3.57;3.07;;;;;;;;;;5075903;28;20529;-71
2021/08/05 12:15:29;;;;;;;3.10;2.90;;;;;;;;;;5075695;28;20410;-73
2021/08/05 12:17:57;;;;;;;3.67;3.37;;;;;;;;;;5075749;28;20421;-71
2021/08/05 12:20:31;;;;;;;4.50;3.23;;;;;;;;;;5075792;28;20406;-70
2021/08/05 12:23:00;;;;;;;4.20;3.63;;;;;;;;;;5075796;28;20430;-73
2021/08/05 12:25:32;;;;;;;5.30;3.70;;;;;;;;;;5075728;28;20418;-72
2021/08/05 12:27:59;;;;;;;4.30;3.90;;;;;;;;;;5075358;28;20840;-70
2021/08/05 12:30:34;;;;;;;4.40;4.00;;;;;;;;;;5075527;28;20403;-72
2021/08/05 12:33:02;;;;;;;3.93;3.57;;;;;;;;;;5075415;28;20461;-71
2021/08/05 12:35:28;;;;;;;4.00;3.70;;;;;;;;;;5075251;28;20517;-73
2021/08/05 12:38:05;;;;;;;5.00;3.37;;;;;;;;;;5075602;28;20697;-72
2021/08/05 12:40:31;;;;;;;4.33;3.93;;;;;;;;;;5075339;28;20414;-74
2021/08/05 12:42:58;;;;;;;4.20;3.80;;;;;;;;;;5075262;28;20926;-72
2021/08/05 12:45:25;;;;;;;4.30;3.80;;;;;;;;;;5061525;28;20915;-71
2021/08/05 12:47:53;;;;;;;4.27;3.87;;;;;;;;;;5075046;28;20791;-72
2021/08/05 12:50:19;;;;;;;5.43;4.93;;;;;;;;;;5075343;28;20763;-73
2021/08/05 12:52:45;;;;;;;4.57;4.17;;;;;;;;;;5075214;28;20410;-72
2021/08/05 12:55:11;;;;;;;5.17;4.77;;;;;;;;;;5095390;28;20430;-74
2021/08/05 12:57:38;;;;;;;5.00;4.60;;;;;;;;;;5070548;28;20452;-70
2021/08/05 13:00:06;;;;;;;5.27;4.80;;;;;;;;;;5074950;28;20777;-71
2021/08/05 13:02:32;;;;;;;6.40;5.80;;;;;;;;;;5075032;28;20413;-70
2021/08/05 13:05:08;;;;;;;7.27;6.57;;;;;;;;;;5075066;28;20466;-72
2021/08/05 13:07:41;;;;;;;5.70;5.20;;;;;;;;;;5073320;28;20437;-71
2021/08/05 13:10:07;;;;;;;7.00;6.50;;;;;;;;;;5074860;28;20403;-71
2021/08/05 13:12:35;;;;;;;5.73;5.23;;;;;;;;;;5074710;28;20509;-73
2021/08/05 13:15:19;;;;;;;6.03;5.60;;;;;;;;;;5074950;28;20457;-70
2021/08/05 13:17:45;;;;;;;6.03;5.53;;;;;;;;;;5074282;28;20407;-71
2021/08/05 13:20:12;;;;;;;6.00;5.50;;;;;;;;;;5074361;28;20934;-73
2021/08/05 13:22:45;;;;;;;7.17;6.53;;;;;;;;;;5074319;28;20408;-69
2021/08/05 13:25:17;;;;;;;6.80;6.10;;;;;;;;;;5074442;28;20408;-71
2021/08/05 13:27:43;;;;;;;6.37;5.90;;;;;;;;;;5073937;28;20817;-72
2021/08/05 13:30:14;;;;;;;6.63;6.10;;;;;;;;;;5074340;28;20498;-71
2021/08/05 13:32:44;;;;;;;6.43;5.93;;;;;;;;;;5074422;28;20403;-71
2021/08/05 13:35:11;;;;;;;8.07;5.10;;;;;;;;;;5089866;28;20427;-73
2021/08/05 13:37:38;;;;;;;12.23;6.57;;;;;;;;;;5094135;28;20398;-71
2021/08/05 13:40:04;;;;;;;6.47;5.87;;;;;;;;;;5094307;28;20409;-73
2021/08/05 13:42:31;;;;;;;7.47;5.67;;;;;;;;;;5094536;28;20743;-74
2021/08/05 13:44:57;;;;;;;6.80;6.07;;;;;;;;;;5078016;28;20768;-75
2021/08/05 13:47:23;;;;;;;7.40;6.80;;;;;;;;;;5073622;28;20407;-72
2021/08/05 13:49:49;;;;;;;6.73;6.13;;;;;;;;;;5073861;28;20479;-74
2021/08/05 13:52:16;;;;;;;7.03;6.07;;;;;;;;;;5074239;28;20603;-71
2021/08/05 13:54:42;;;;;;;7.37;6.67;;;;;;;;;;5089696;28;20493;-71
2021/08/05 13:57:09;;;;;;;8.00;7.20;;;;;;;;;;5073098;28;20504;-73
2021/08/05 13:59:35;;;;;;;8.30;7.50;;;;;;;;;;5073919;28;20403;-74
2021/08/05 14:02:01;;;;;;;8.17;7.30;;;;;;;;;;5073577;28;20493;-71
2021/08/05 14:04:28;;;;;;;8.53;7.10;;;;;;;;;;5073413;28;20461;-73
2021/08/05 14:06:54;;;;;;;8.13;7.33;;;;;;;;;;5073353;28;20417;-70
2021/08/05 14:09:20;;;;;;;6.90;6.20;;;;;;;;;;5073562;28;20449;-74
2021/08/05 14:11:47;;;;;;;6.97;6.27;;;;;;;;;;5073607;28;20407;-74
2021/08/05 14:14:13;;;;;;;5.70;5.20;;;;;;;;;;5073143;28;20488;-71
2021/08/05 14:16:45;;;;;;;6.03;5.50;;;;;;;;;;5073006;28;20407;-70
2021/08/05 14:19:12;;;;;;;5.80;5.30;;;;;;;;;;5073272;28;20763;-71
2021/08/05 14:21:38;;;;;;;6.47;5.87;;;;;;;;;;5073499;28;20425;-74
2021/08/05 14:24:05;;;;;;;5.60;5.10;;;;;;;;;;5073141;28;20938;-69
2021/08/05 14:26:31;;;;;;;5.60;5.17;;;;;;;;;;5073036;28;20410;-73
2021/08/05 14:28:57;;;;;;;5.60;5.10;;;;;;;;;;5073097;28;20414;-75
2021/08/05 14:31:23;;;;;;;5.70;5.20;;;;;;;;;;5073245;28;20417;-70
2021/08/05 14:33:49;;;;;;;5.27;4.77;;;;;;;;;;5078475;28;20453;-72
2021/08/05 14:36:15;;;;;;;5.50;5.00;;;;;;;;;;5093056;28;20416;-76
2021/08/05 14:38:41;;;;;;;7.30;4.93;;;;;;;;;;5093176;28;20405;-73
2021/08/05 14:41:09;;;;;;;5.00;4.60;;;;;;;;;;5093565;28;20406;-69
2021/08/05 14:43:35;;;;;;;4.90;4.50;;;;;;;;;;5093112;28;20832;-72
2021/08/05 14:46:01;;;;;;;4.80;4.40;;;;;;;;;;5093256;28;20420;-73